Archiv-/Tagesdaten

--Timestamp---	Temp	Chill	HIndex	Humid	Dewpt	 Wind 	HiWind	WindDir	Rain 	Barom	Solar	 ET  	 UV 
--------------	----	-----	------	-----	-----	------	------	-------	-----	-----	-----	-----	----
20100427 00:00	9.3	9.3	9.3	86	7.1	0	2	202	0.0	1024.5	0	0.000	0.0
20100427 00:05	9.3	9.3	9.3	86	7.1	2	5	202	0.0	1024.5	0	0.000	0.0
20100427 00:10	9.2	9.2	9.2	86	6.9	2	3	202	0.0	1024.5	0	0.000	0.0
20100427 00:15	9.1	9.1	9.1	86	6.8	2	5	202	0.0	1024.6	0	0.000	0.0
20100427 00:20	8.9	8.9	8.9	86	6.7	3	6	202	0.0	1024.5	0	0.000	0.0
20100427 00:25	8.8	8.8	8.8	87	6.8	3	6	202	0.0	1024.6	0	0.000	0.0
20100427 00:30	8.8	8.8	8.8	87	6.7	2	5	202	0.0	1024.6	0	0.000	0.0
20100427 00:35	8.7	8.7	8.7	87	6.6	0	3	202	0.0	1024.6	0	0.000	0.0
20100427 00:40	8.6	8.6	8.6	87	6.5	0	2	202	0.0	1024.5	0	0.000	0.0
20100427 00:45	8.5	8.5	8.5	87	6.5	0	2	202	0.0	1024.5	0	0.000	0.0
20100427 00:50	8.4	8.4	8.4	87	6.4	0	2	202	0.0	1024.5	0	0.000	0.0
20100427 00:55	8.3	8.3	8.3	88	6.4	0	5	202	0.0	1024.6	0	0.000	0.0
20100427 01:00	8.2	8.2	8.2	88	6.4	2	5	202	0.0	1024.6	0	0.000	0.0
20100427 01:05	8.2	8.2	8.2	88	6.3	2	5	202	0.0	1024.6	0	0.000	0.0
20100427 01:10	8.1	8.1	8.1	88	6.2	3	8	202	0.0	1024.7	0	0.000	0.0
20100427 01:15	7.9	7.9	7.9	88	6.1	3	8	202	0.0	1024.7	0	0.000	0.0
20100427 01:20	7.9	7.9	7.9	88	6.0	3	6	202	0.0	1024.7	0	0.000	0.0
20100427 01:25	7.8	7.8	7.8	88	5.9	3	5	202	0.0	1024.8	0	0.000	0.0
20100427 01:30	7.7	7.7	7.7	88	5.9	2	5	202	0.0	1024.7	0	0.000	0.0
20100427 01:35	7.7	7.7	7.7	89	6.0	2	5	202	0.0	1024.7	0	0.000	0.0
20100427 01:40	7.6	7.6	7.6	89	5.9	2	3	202	0.0	1024.7	0	0.000	0.0
20100427 01:45	7.6	7.6	7.6	89	5.9	2	3	202	0.0	1024.6	0	0.000	0.0
20100427 01:50	7.6	7.6	7.6	89	5.9	0	3	202	0.0	1024.6	0	0.000	0.0
20100427 01:55	7.6	7.6	7.6	89	5.9	0	3	202	0.0	1024.6	0	0.000	0.0
20100427 02:00	7.6	7.6	7.6	89	5.9	2	5	202	0.0	1024.6	0	0.000	0.0
20100427 02:05	7.7	7.7	7.7	89	6.0	2	5	202	0.0	1024.5	0	0.000	0.0
20100427 02:10	7.7	7.7	7.7	89	6.0	3	5	202	0.0	1024.6	0	0.000	0.0
20100427 02:15	7.7	7.7	7.7	89	6.0	2	5	202	0.0	1024.6	0	0.000	0.0
20100427 02:20	7.7	7.7	7.7	89	6.0	0	3	202	0.0	1024.6	0	0.000	0.0
20100427 02:25	7.7	7.7	7.7	89	6.0	0	3	202	0.0	1024.6	0	0.000	0.0
20100427 02:30	7.7	7.7	7.7	89	6.0	2	5	202	0.0	1024.6	0	0.000	0.0
20100427 02:35	7.7	7.7	7.7	89	6.0	2	5	202	0.0	1024.6	0	0.000	0.0
20100427 02:40	7.6	7.6	7.6	89	5.9	2	5	202	0.0	1024.5	0	0.000	0.0
20100427 02:45	7.6	7.6	7.6	89	5.9	2	5	202	0.0	1024.5	0	0.000	0.0
20100427 02:50	7.6	7.6	7.6	89	5.9	2	5	202	0.0	1024.5	0	0.000	0.0
20100427 02:55	7.6	7.6	7.6	89	5.9	3	6	202	0.0	1024.5	0	0.000	0.0
20100427 03:00	7.6	7.6	7.6	89	5.9	3	6	202	0.0	1024.5	0	0.000	0.0
20100427 03:05	7.5	7.5	7.5	89	5.8	5	8	202	0.0	1024.3	0	0.000	0.0
20100427 03:10	7.5	7.5	7.5	89	5.8	2	5	202	0.0	1024.3	0	0.000	0.0
20100427 03:15	7.6	7.6	7.6	89	5.9	2	5	202	0.0	1024.3	0	0.000	0.0
20100427 03:20	7.6	7.6	7.6	89	5.9	2	5	202	0.0	1024.2	0	0.000	0.0
20100427 03:25	7.6	7.6	7.6	89	5.9	2	5	202	0.0	1024.2	0	0.000	0.0
20100427 03:30	7.6	7.6	7.6	89	5.9	2	3	202	0.0	1024.3	0	0.000	0.0
20100427 03:35	7.6	7.6	7.6	89	5.9	2	6	202	0.0	1024.4	0	0.000	0.0
20100427 03:40	7.6	7.6	7.6	89	5.9	5	10	202	0.0	1024.4	0	0.000	0.0
20100427 03:45	7.5	7.5	7.5	89	5.8	3	10	202	0.0	1024.4	0	0.000	0.0
20100427 03:50	7.5	7.5	7.5	89	5.8	5	10	202	0.0	1024.5	0	0.000	0.0
20100427 03:55	7.5	7.5	7.5	89	5.8	3	8	202	0.0	1024.4	0	0.000	0.0
20100427 04:00	7.6	7.6	7.6	89	5.9	5	10	202	0.0	1024.4	0	0.000	0.0
20100427 04:05	7.6	7.6	7.6	89	5.9	3	6	202	0.0	1024.6	0	0.000	0.0
20100427 04:10	7.7	7.7	7.7	88	5.9	2	6	202	0.0	1024.5	0	0.000	0.0
20100427 04:15	7.8	7.8	7.8	88	5.9	2	5	202	0.0	1024.5	0	0.000	0.0
20100427 04:20	7.8	7.8	7.8	88	6.0	2	3	202	0.0	1024.5	0	0.000	0.0
20100427 04:25	7.9	7.9	7.9	88	6.0	2	5	202	0.0	1024.4	0	0.000	0.0
20100427 04:30	7.9	7.9	7.9	88	6.1	2	5	202	0.0	1024.5	0	0.000	0.0
20100427 04:35	7.9	7.9	7.9	88	6.1	0	0	-100000	0.0	1024.4	0	0.000	0.0
20100427 04:40	7.9	7.9	7.9	87	5.9	0	0	-100000	0.0	1024.4	0	0.000	0.0
20100427 04:45	7.9	7.9	7.9	87	5.9	0	0	-100000	0.0	1024.5	0	0.000	0.0
20100427 04:50	7.9	7.9	7.9	87	5.9	0	2	202	0.0	1024.4	0	0.000	0.0
20100427 04:55	7.9	7.9	7.9	88	6.0	3	6	202	0.0	1024.4	0	0.000	0.0
20100427 05:00	7.8	7.8	7.8	88	6.0	2	5	202	0.0	1024.4	0	0.000	0.0
20100427 05:05	7.8	7.8	7.8	88	5.9	3	5	202	0.0	1024.5	0	0.000	0.0
20100427 05:10	7.8	7.8	7.8	88	5.9	2	5	202	0.0	1024.5	0	0.000	0.0
20100427 05:15	7.8	7.8	7.8	88	5.9	0	5	202	0.0	1024.6	0	0.000	0.0
20100427 05:20	7.8	7.8	7.8	88	5.9	3	6	202	0.0	1024.5	0	0.000	0.0
20100427 05:25	7.8	7.8	7.8	88	5.9	2	5	202	0.0	1024.4	0	0.000	0.0
20100427 05:30	7.8	7.8	7.8	88	5.9	0	3	202	0.0	1024.5	0	0.000	0.0
20100427 05:35	7.7	7.7	7.7	88	5.9	0	2	202	0.0	1024.5	0	0.000	0.0
20100427 05:40	7.7	7.7	7.7	88	5.8	2	3	202	0.0	1024.4	0	0.000	0.0
20100427 05:45	7.6	7.6	7.6	88	5.8	0	2	202	0.0	1024.4	0	0.000	0.0
20100427 05:50	7.6	7.6	7.6	88	5.7	0	2	202	0.0	1024.4	0	0.000	0.0
20100427 05:55	7.5	7.5	7.5	88	5.6	0	0	-100000	0.0	1024.4	0	0.000	0.0
20100427 06:00	7.4	7.4	7.4	88	5.5	0	0	-100000	0.0	1024.4	0	0.000	0.0
20100427 06:05	7.3	7.3	7.3	88	5.4	0	0	-100000	0.0	1024.5	0	0.000	0.0
20100427 06:10	7.3	7.3	7.3	88	5.4	0	2	202	0.0	1024.4	3	0.000	0.0
20100427 06:15	7.3	7.3	7.3	89	5.6	0	3	202	0.0	1024.4	6	0.000	0.0
20100427 06:20	7.3	7.3	7.3	89	5.6	0	2	202	0.0	1024.5	8	0.000	0.0
20100427 06:25	7.3	7.3	7.3	89	5.6	0	0	-100000	0.0	1024.5	13	0.000	0.0
20100427 06:30	7.3	7.3	7.3	89	5.6	0	0	-100000	0.0	1024.5	16	0.000	0.0
20100427 06:35	7.3	7.3	7.3	89	5.6	0	5	202	0.0	1024.5	18	0.000	0.0
20100427 06:40	7.3	7.3	7.3	89	5.6	2	5	202	0.0	1024.5	21	0.000	0.0
20100427 06:45	7.3	7.3	7.3	89	5.6	0	3	202	0.0	1024.6	27	0.000	0.0
20100427 06:50	7.3	7.3	7.3	89	5.6	0	2	202	0.0	1024.6	33	0.000	0.0
20100427 06:55	7.3	7.3	7.3	89	5.6	0	3	202	0.0	1024.7	37	0.000	0.0
20100427 07:00	7.4	7.4	7.4	89	5.7	0	3	202	0.0	1024.7	41	0.000	0.0
20100427 07:05	7.4	7.4	7.4	89	5.7	0	0	-100000	0.0	1024.9	45	0.000	0.0
20100427 07:10	7.4	7.4	7.4	88	5.6	0	0	-100000	0.0	1024.9	53	0.000	0.0
20100427 07:15	7.4	7.4	7.4	89	5.7	0	2	202	0.0	1025.0	65	0.000	0.0
20100427 07:20	7.6	7.6	7.6	88	5.7	0	0	-100000	0.0	1024.8	82	0.000	0.0
20100427 07:25	7.7	7.7	7.7	89	6.0	0	0	-100000	0.0	1024.9	101	0.000	0.0
20100427 07:30	7.9	7.9	7.9	88	6.0	0	2	202	0.0	1025.0	123	0.000	0.0
20100427 07:35	8.1	8.1	8.1	88	6.2	0	2	202	0.0	1025.0	175	0.000	0.0
20100427 07:40	8.3	8.3	8.3	87	6.2	0	0	-100000	0.0	1025.0	198	0.000	0.0
20100427 07:45	8.6	8.6	8.6	87	6.5	0	0	-100000	0.0	1025.0	223	0.000	0.0
20100427 07:50	8.9	8.9	8.9	87	6.9	0	2	202	0.0	1024.9	209	0.000	0.0
20100427 07:55	9.3	9.3	9.3	86	7.1	2	5	202	0.0	1024.9	156	0.000	0.3
20100427 08:00	9.6	9.6	9.6	86	7.3	0	2	202	0.0	1025.0	145	0.051	0.5
20100427 08:05	9.8	9.8	9.8	85	7.4	0	0	-100000	0.0	1025.1	149	0.000	0.5
20100427 08:10	9.9	9.9	9.9	85	7.5	0	0	-100000	0.0	1025.1	158	0.000	0.6
20100427 08:15	10.0	10.0	10.0	85	7.6	0	0	-100000	0.0	1025.2	167	0.000	0.6
20100427 08:20	10.1	10.1	10.1	85	7.6	0	3	315	0.0	1025.2	187	0.000	0.7
20100427 08:25	10.2	10.2	10.2	85	7.8	0	3	292	0.0	1025.2	196	0.000	0.7
20100427 08:30	10.3	10.3	10.3	84	7.7	0	0	-100000	0.0	1025.1	214	0.000	0.8
20100427 08:35	10.6	10.6	10.6	84	8.0	0	2	292	0.0	1025.1	246	0.000	0.8
20100427 08:40	10.7	10.7	10.7	83	8.0	0	0	-100000	0.0	1025.2	232	0.000	0.9
20100427 08:45	10.8	10.8	10.8	83	8.1	0	2	338	0.0	1025.2	254	0.000	1.0
20100427 08:50	11.1	11.1	11.1	83	8.3	0	2	338	0.0	1025.3	273	0.000	1.0
20100427 08:55	11.2	11.2	11.2	82	8.3	2	6	338	0.0	1025.2	275	0.000	1.1
20100427 09:00	11.4	11.4	11.4	79	7.9	2	5	0	0.0	1025.2	276	0.102	1.2
20100427 09:05	11.7	11.7	11.7	78	8.0	2	5	0	0.0	1025.2	270	0.000	1.2
20100427 09:10	11.9	11.9	11.9	76	7.8	5	6	0	0.0	1025.2	246	0.000	1.2
20100427 09:15	12.1	12.1	12.1	75	7.8	5	10	22	0.0	1025.2	239	0.000	1.2
20100427 09:20	12.2	12.2	12.2	74	7.7	5	8	22	0.0	1025.2	225	0.000	1.3
20100427 09:25	12.2	12.2	12.2	74	7.7	6	10	22	0.0	1025.3	224	0.000	1.3
20100427 09:30	12.2	12.2	12.2	74	7.7	5	8	22	0.0	1025.3	215	0.000	1.4
20100427 09:35	12.3	12.3	12.3	73	7.6	6	10	22	0.0	1025.4	212	0.000	1.5
20100427 09:40	12.4	12.4	12.4	73	7.7	6	10	22	0.0	1025.4	212	0.000	1.6
20100427 09:45	12.4	12.4	12.4	72	7.5	6	10	45	0.0	1025.4	211	0.000	1.6
20100427 09:50	12.5	12.5	12.5	73	7.8	5	11	22	0.0	1025.3	206	0.000	1.7
20100427 09:55	12.7	12.7	12.7	72	7.7	5	10	22	0.0	1025.3	212	0.000	1.8
20100427 10:00	12.8	12.8	12.8	72	7.9	5	10	45	0.0	1025.4	217	0.127	1.9
20100427 10:05	12.9	12.9	12.9	72	8.0	5	8	22	0.0	1025.6	217	0.000	1.9
20100427 10:10	13.1	13.1	13.1	72	8.1	2	6	22	0.0	1025.6	224	0.000	2.0
20100427 10:15	13.3	13.3	13.3	70	7.9	5	11	22	0.0	1025.5	229	0.000	2.0
20100427 10:20	13.4	13.4	13.4	69	7.9	3	11	0	0.0	1025.5	255	0.000	2.1
20100427 10:25	13.6	13.6	13.6	69	8.0	5	14	22	0.0	1025.5	424	0.000	2.3
20100427 10:30	13.7	13.7	13.7	66	7.5	6	11	22	0.0	1025.5	503	0.000	2.8
20100427 10:35	13.8	13.8	13.8	64	7.1	8	11	22	0.0	1025.5	550	0.000	3.0
20100427 10:40	13.9	13.9	13.9	62	6.7	8	18	22	0.0	1025.5	572	0.000	3.1
20100427 10:45	14.2	14.2	14.2	63	7.2	3	11	22	0.0	1025.6	571	0.000	3.2
20100427 10:50	14.5	14.5	14.5	59	6.6	5	10	22	0.0	1025.5	509	0.000	3.1
20100427 10:55	14.6	14.6	14.6	61	7.1	5	11	22	0.0	1025.5	521	0.000	3.2
20100427 11:00	14.7	14.7	14.7	61	7.2	3	8	22	0.0	1025.4	527	0.229	3.3
20100427 11:05	14.8	14.8	14.8	57	6.3	5	11	22	0.0	1025.4	547	0.000	3.4
20100427 11:10	14.7	14.7	14.7	58	6.5	3	6	45	0.0	1025.5	542	0.000	3.4
20100427 11:15	14.7	14.7	14.7	56	6.0	5	10	68	0.0	1025.6	490	0.000	3.4
20100427 11:20	14.8	14.8	14.8	59	6.8	5	16	68	0.0	1025.5	592	0.000	3.8
20100427 11:25	14.9	14.9	14.9	59	6.9	5	11	68	0.0	1025.5	616	0.000	3.9
20100427 11:30	15.0	15.0	15.0	58	6.8	6	10	22	0.0	1025.6	598	0.000	3.9
20100427 11:35	15.0	15.0	15.0	55	6.0	5	11	22	0.0	1025.6	600	0.000	3.9
20100427 11:40	15.1	15.1	15.1	56	6.4	8	18	90	0.0	1025.6	625	0.000	4.1
20100427 11:45	15.2	15.2	15.2	56	6.4	5	11	0	0.0	1025.6	615	0.000	4.1
20100427 11:50	15.3	15.3	15.3	56	6.6	3	11	45	0.0	1025.6	573	0.000	3.9
20100427 11:55	15.4	15.4	15.4	57	7.0	3	8	45	0.0	1025.6	596	0.000	4.1
20100427 12:00	15.6	15.6	15.6	56	6.8	3	10	112	0.0	1025.6	571	0.330	4.0
20100427 12:05	15.6	15.6	15.6	54	6.3	6	14	68	0.0	1025.7	571	0.000	4.1
20100427 12:10	15.6	15.6	15.6	55	6.5	6	11	68	0.0	1025.7	665	0.000	4.5
20100427 12:15	15.6	15.6	15.6	54	6.3	5	13	68	0.0	1025.7	593	0.000	4.3
20100427 12:20	15.6	15.6	15.6	53	6.0	5	11	68	0.0	1025.7	590	0.000	4.4
20100427 12:25	15.7	15.7	15.7	53	6.1	6	13	22	0.0	1025.6	724	0.000	4.9
20100427 12:30	15.9	15.9	15.9	52	6.1	5	8	22	0.0	1025.5	729	0.000	5.0
20100427 12:35	16.2	16.2	16.2	49	5.4	6	11	22	0.0	1025.5	510	0.000	4.4
20100427 12:40	15.9	15.9	15.9	51	5.8	8	16	22	0.0	1025.4	199	0.000	3.2
20100427 12:45	15.8	15.8	15.8	48	4.8	3	8	22	0.0	1025.4	562	0.000	4.9
20100427 12:50	16.1	16.1	16.1	48	5.0	5	10	338	0.0	1025.3	781	0.000	5.4
20100427 12:55	16.4	16.4	16.4	49	5.7	6	11	338	0.0	1025.2	688	0.000	4.5
20100427 13:00	16.3	16.3	16.3	46	4.7	6	16	45	0.0	1025.2	634	0.356	4.9
20100427 13:05	16.2	16.2	16.2	48	5.1	5	10	45	0.0	1025.3	603	0.000	4.7
20100427 13:10	16.3	16.3	16.3	48	5.3	3	6	45	0.0	1025.3	684	0.000	5.3
20100427 13:15	16.7	16.7	16.7	49	5.9	3	10	45	0.0	1025.2	851	0.000	5.8
20100427 13:20	16.7	16.7	16.7	46	5.0	3	10	68	0.0	1025.1	860	0.000	5.8
20100427 13:25	16.7	16.7	16.7	44	4.4	8	11	68	0.0	1025.1	836	0.000	5.7
20100427 13:30	16.7	16.7	16.7	42	3.7	6	14	22	0.0	1025.1	817	0.000	5.6
20100427 13:35	16.8	16.8	16.8	43	4.2	3	6	315	0.0	1025.0	830	0.000	5.7
20100427 13:40	17.1	17.1	17.1	43	4.4	3	6	292	0.0	1025.0	856	0.000	5.8
20100427 13:45	17.3	17.3	17.3	45	5.2	3	10	292	0.0	1024.9	864	0.000	5.9
20100427 13:50	17.7	17.7	17.7	45	5.6	3	6	135	0.0	1024.8	861	0.000	5.8
20100427 13:55	18.0	18.0	18.0	43	5.2	3	11	45	0.0	1024.8	854	0.000	5.8
20100427 14:00	18.0	18.0	18.0	40	4.2	3	14	292	0.0	1024.7	847	0.483	5.7
20100427 14:05	17.8	17.8	17.8	40	4.0	6	11	45	0.0	1024.7	825	0.000	5.6
20100427 14:10	17.8	17.8	17.8	43	5.0	6	10	135	0.0	1024.7	841	0.000	5.5
20100427 14:15	17.9	17.9	17.9	42	4.8	5	8	112	0.0	1024.7	841	0.000	5.5
20100427 14:20	17.8	17.8	17.8	43	5.0	3	6	90	0.0	1024.7	856	0.000	5.5
20100427 14:25	17.9	17.9	17.9	42	4.8	3	10	90	0.0	1024.7	884	0.000	5.5
20100427 14:30	18.2	18.2	18.2	44	5.8	3	8	112	0.0	1024.5	887	0.000	5.4
20100427 14:35	18.7	18.7	18.7	43	5.9	3	10	315	0.0	1024.4	913	0.000	5.2
20100427 14:40	19.0	19.0	19.0	42	5.8	8	14	22	0.0	1024.4	923	0.000	4.6
20100427 14:45	18.9	18.9	18.9	41	5.3	5	10	0	0.0	1024.4	331	0.000	3.0
20100427 14:50	18.6	18.6	18.6	46	6.8	5	10	0	0.0	1024.4	314	0.000	2.7
20100427 14:55	18.2	18.2	18.2	45	6.0	8	13	0	0.0	1024.6	319	0.000	2.7
20100427 15:00	17.8	17.8	17.8	42	4.7	5	14	22	0.0	1024.5	309	0.432	2.7
20100427 15:05	17.8	17.8	17.8	42	4.7	5	8	315	0.0	1024.5	333	0.000	3.3
20100427 15:10	18.1	18.1	18.1	43	5.3	5	10	0	0.0	1024.5	497	0.000	3.5
20100427 15:15	18.3	18.3	18.3	41	4.8	5	10	338	0.0	1024.5	396	0.000	3.2
20100427 15:20	18.3	18.3	18.3	41	4.8	8	16	315	0.0	1024.5	425	0.000	3.1
20100427 15:25	18.4	18.4	18.4	45	6.2	6	14	338	0.0	1024.5	705	0.000	3.8
20100427 15:30	18.8	18.8	18.8	42	5.6	5	18	292	0.0	1024.3	888	0.000	3.9
20100427 15:35	18.8	18.8	18.8	41	5.3	5	11	338	0.0	1024.3	524	0.000	3.4
20100427 15:40	18.8	18.8	18.8	43	6.0	5	8	45	0.0	1024.2	810	0.000	3.8
20100427 15:45	19.1	19.1	19.1	42	5.9	3	8	22	0.0	1024.1	661	0.000	3.6
20100427 15:50	19.2	19.2	19.2	42	6.0	3	8	0	0.0	1024.2	704	0.000	3.5
20100427 15:55	19.1	19.1	19.1	42	5.8	3	10	22	0.0	1024.1	673	0.000	3.5
20100427 16:00	18.9	18.9	18.9	42	5.7	5	11	22	0.0	1024.1	651	0.381	3.3
20100427 16:05	19.1	19.1	19.1	38	4.4	6	11	22	0.0	1024.1	633	0.000	3.2
20100427 16:10	19.1	19.1	19.1	40	5.1	5	11	292	0.0	1024.0	626	0.000	3.1
20100427 16:15	19.1	19.1	19.1	38	4.4	3	14	45	0.0	1024.0	615	0.000	2.9
20100427 16:20	19.0	19.0	19.0	41	5.4	5	16	22	0.0	1024.0	620	0.000	2.8
20100427 16:25	19.3	19.3	19.3	39	5.0	3	10	0	0.0	1023.9	647	0.000	2.7
20100427 16:30	19.6	19.6	19.6	40	5.6	8	18	315	0.0	1024.0	567	0.000	2.4
20100427 16:35	19.7	19.7	19.7	41	6.1	6	18	315	0.0	1024.0	369	0.000	2.5
20100427 16:40	19.8	19.8	19.8	41	6.1	10	21	315	0.0	1023.8	692	0.000	2.4
20100427 16:45	19.9	19.9	19.9	39	5.5	5	10	338	0.0	1023.8	712	0.000	2.3
20100427 16:50	19.9	19.9	19.9	38	5.2	6	10	315	0.0	1023.7	681	0.000	2.2
20100427 16:55	19.9	19.9	19.9	37	4.8	6	11	45	0.0	1023.7	637	0.000	1.9
20100427 17:00	19.7	19.7	19.7	39	5.3	6	18	338	0.0	1023.8	464	0.381	1.7
20100427 17:05	19.6	19.6	19.6	38	4.8	5	11	315	0.0	1023.8	230	0.000	1.5
20100427 17:10	19.4	19.4	19.4	40	5.4	6	11	315	0.0	1023.8	239	0.000	1.4
20100427 17:15	19.2	19.2	19.2	40	5.2	6	21	338	0.0	1023.8	229	0.000	1.2
20100427 17:20	18.7	18.7	18.7	41	5.2	10	18	22	0.0	1023.9	395	0.000	1.3
20100427 17:25	18.6	18.6	18.6	41	5.1	8	14	45	0.0	1023.9	528	0.000	1.4
20100427 17:30	18.6	18.6	18.6	40	4.7	6	11	45	0.0	1024.0	505	0.000	1.2
20100427 17:35	18.5	18.5	18.5	41	5.0	10	19	22	0.0	1024.0	439	0.000	1.1
20100427 17:40	18.4	18.4	18.4	42	5.3	10	16	45	0.0	1024.0	443	0.000	1.0
20100427 17:45	18.4	18.4	18.4	42	5.2	10	18	22	0.0	1024.0	262	0.000	0.9
20100427 17:50	18.1	18.1	18.1	41	4.6	8	16	45	0.0	1024.1	217	0.000	0.9
20100427 17:55	17.9	17.9	17.9	41	4.5	10	16	45	0.0	1024.2	308	0.000	0.9
20100427 18:00	17.9	17.9	17.9	42	4.8	5	11	68	0.0	1024.2	330	0.254	0.8
20100427 18:05	17.9	17.9	17.9	42	4.8	8	14	45	0.0	1024.2	128	0.000	0.7
20100427 18:10	17.7	17.7	17.7	43	5.0	5	10	22	0.0	1024.2	186	0.000	0.7
20100427 18:15	17.7	17.7	17.7	42	4.6	6	11	45	0.0	1024.2	299	0.000	0.7
20100427 18:20	17.9	17.9	17.9	44	5.5	6	10	0	0.0	1024.2	266	0.000	0.6
20100427 18:25	18.1	18.1	18.1	43	5.3	5	8	0	0.0	1024.0	249	0.000	0.6
20100427 18:30	18.2	18.2	18.2	44	5.8	5	10	45	0.0	1024.0	223	0.000	0.5
20100427 18:35	18.2	18.2	18.2	45	6.1	3	6	338	0.0	1024.1	213	0.000	0.5
20100427 18:40	18.1	18.1	18.1	43	5.3	5	10	0	0.0	1024.0	194	0.000	0.2
20100427 18:45	17.9	17.9	17.9	45	5.8	5	10	315	0.0	1024.2	165	0.000	0.0
20100427 18:50	17.7	17.7	17.7	44	5.3	5	8	315	0.0	1024.1	134	0.000	0.0
20100427 18:55	17.6	17.6	17.6	45	5.5	2	5	315	0.0	1024.1	100	0.000	0.0
20100427 19:00	17.4	17.4	17.4	45	5.3	3	14	0	0.0	1024.1	71	0.152	0.0
20100427 19:05	17.2	17.2	17.2	45	5.2	5	11	338	0.0	1023.9	65	0.000	0.0
20100427 19:10	17.1	17.1	17.1	47	5.7	0	3	338	0.0	1023.9	58	0.000	0.0
20100427 19:15	16.8	16.8	16.8	48	5.8	2	5	338	0.0	1024.1	53	0.000	0.0
20100427 19:20	16.6	16.6	16.6	48	5.5	0	3	338	0.0	1024.1	49	0.000	0.0
20100427 19:25	16.4	16.4	16.4	49	5.7	0	2	338	0.0	1024.1	46	0.000	0.0
20100427 19:30	16.2	16.2	16.2	49	5.5	0	2	338	0.0	1024.2	42	0.000	0.0
20100427 19:35	16.0	16.0	16.0	49	5.3	0	2	338	0.0	1024.2	39	0.000	0.0
20100427 19:40	15.9	15.9	15.9	49	5.2	0	2	338	0.0	1024.2	35	0.000	0.0
20100427 19:45	15.8	15.8	15.8	50	5.4	0	2	338	0.0	1024.3	31	0.000	0.0
20100427 19:50	15.7	15.7	15.7	51	5.6	0	2	338	0.0	1024.4	27	0.000	0.0
20100427 19:55	15.5	15.5	15.5	49	4.8	5	11	22	0.0	1024.4	22	0.000	0.0
20100427 20:00	15.4	15.4	15.4	49	4.8	5	6	22	0.0	1024.5	18	0.051	0.0
20100427 20:05	15.3	15.3	15.3	49	4.7	3	8	22	0.0	1024.3	14	0.000	0.0
20100427 20:10	15.2	15.2	15.2	50	4.9	2	5	22	0.0	1024.4	11	0.000	0.0
20100427 20:15	15.0	15.0	15.0	50	4.7	2	5	22	0.0	1024.4	7	0.000	0.0
20100427 20:20	14.9	14.9	14.9	51	4.9	2	5	22	0.0	1024.4	2	0.000	0.0
20100427 20:25	14.7	14.7	14.7	51	4.6	2	5	22	0.0	1024.4	0	0.000	0.0
20100427 20:30	14.5	14.5	14.5	51	4.5	0	3	22	0.0	1024.6	0	0.000	0.0
20100427 20:35	14.3	14.3	14.3	52	4.6	0	2	22	0.0	1024.7	0	0.000	0.0
20100427 20:40	14.2	14.2	14.2	53	4.7	0	0	-100000	0.0	1024.8	0	0.000	0.0
20100427 20:45	14.0	14.0	14.0	54	4.8	0	0	-100000	0.0	1024.8	0	0.000	0.0
20100427 20:50	13.8	13.8	13.8	55	4.9	0	0	-100000	0.0	1025.0	0	0.000	0.0
20100427 20:55	13.6	13.6	13.6	55	4.7	0	2	22	0.0	1025.0	0	0.000	0.0
20100427 21:00	13.4	13.4	13.4	55	4.6	0	3	22	0.0	1025.3	0	0.025	0.0
20100427 21:05	13.3	13.3	13.3	55	4.5	0	3	22	0.0	1025.2	0	0.000	0.0
20100427 21:10	13.3	13.3	13.3	56	4.7	0	2	22	0.0	1025.2	0	0.000	0.0
20100427 21:15	13.2	13.2	13.2	54	4.1	3	6	22	0.0	1025.2	0	0.000	0.0
20100427 21:20	13.1	13.1	13.1	56	4.5	0	3	22	0.0	1025.3	0	0.000	0.0
20100427 21:25	12.9	12.9	12.9	55	4.1	0	3	22	0.0	1025.4	0	0.000	0.0
20100427 21:30	12.9	12.9	12.9	57	4.6	0	2	22	0.0	1025.5	0	0.000	0.0
20100427 21:35	12.7	12.7	12.7	56	4.2	0	0	-100000	0.0	1025.6	0	0.000	0.0
20100427 21:40	12.6	12.6	12.6	57	4.3	0	2	22	0.0	1025.6	0	0.000	0.0
20100427 21:45	12.4	12.4	12.4	57	4.1	0	2	22	0.0	1025.8	0	0.000	0.0
20100427 21:50	12.2	12.2	12.2	58	4.1	0	0	-100000	0.0	1025.8	0	0.000	0.0
20100427 21:55	12.0	12.0	12.0	59	4.2	0	2	22	0.0	1025.8	0	0.000	0.0
20100427 22:00	11.8	11.8	11.8	60	4.3	0	2	22	0.0	1025.8	0	0.025	0.0
20100427 22:05	11.6	11.6	11.6	60	4.1	0	0	-100000	0.0	1025.8	0	0.000	0.0
20100427 22:10	11.4	11.4	11.4	61	4.2	0	2	22	0.0	1025.8	0	0.000	0.0
20100427 22:15	11.3	11.3	11.3	61	4.0	0	0	-100000	0.0	1025.9	0	0.000	0.0
20100427 22:20	11.1	11.1	11.1	62	4.1	0	0	-100000	0.0	1025.9	0	0.000	0.0
20100427 22:25	10.9	10.9	10.9	64	4.4	0	0	-100000	0.0	1025.8	0	0.000	0.0
20100427 22:30	10.9	10.9	10.9	64	4.3	0	0	-100000	0.0	1025.8	0	0.000	0.0
20100427 22:35	10.8	10.8	10.8	64	4.3	0	0	-100000	0.0	1025.9	0	0.000	0.0
20100427 22:40	10.7	10.7	10.7	65	4.4	0	0	-100000	0.0	1026.1	0	0.000	0.0
20100427 22:45	10.6	10.6	10.6	65	4.3	0	0	-100000	0.0	1026.1	0	0.000	0.0
20100427 22:50	10.5	10.5	10.5	65	4.2	0	2	22	0.0	1026.2	0	0.000	0.0
20100427 22:55	10.3	10.3	10.3	66	4.3	0	0	-100000	0.0	1026.2	0	0.000	0.0
20100427 23:00	10.2	10.2	10.2	66	4.1	0	0	-100000	0.0	1026.2	0	0.025	0.0
20100427 23:05	10.1	10.1	10.1	67	4.2	0	0	-100000	0.0	1026.0	0	0.000	0.0
20100427 23:10	9.8	9.8	9.8	68	4.2	0	0	-100000	0.0	1026.0	0	0.000	0.0
20100427 23:15	9.8	9.8	9.8	68	4.2	0	0	-100000	0.0	1026.0	0	0.000	0.0
20100427 23:20	9.8	9.8	9.8	68	4.2	0	0	-100000	0.0	1026.0	0	0.000	0.0
20100427 23:25	9.8	9.8	9.8	68	4.2	0	2	22	0.0	1025.9	0	0.000	0.0
20100427 23:30	9.7	9.7	9.7	68	4.1	0	0	-100000	0.0	1026.0	0	0.000	0.0
20100427 23:35	9.6	9.6	9.6	68	4.0	0	0	-100000	0.0	1026.2	0	0.000	0.0
20100427 23:40	9.6	9.6	9.6	69	4.1	0	2	22	0.0	1026.2	0	0.000	0.0
20100427 23:45	9.4	9.4	9.4	69	4.0	0	2	22	0.0	1026.2	0	0.000	0.0
20100427 23:50	9.4	9.4	9.4	70	4.2	0	2	22	0.0	1026.1	0	0.000	0.0
20100427 23:55	9.4	9.4	9.4	70	4.2	2	3	22	0.0	1026.3	0	0.000	0.0



Please note the license to use and transfer of this data:
http://creativecommons.org/licenses/by-nc-sa/3.0/deed.en

Bitte beachten sie die Lizenz zur Verwertung und Weitergabe der Daten:
http://creativecommons.org/licenses/by-nc-sa/3.0/deed.de

zurück zur Übersicht der Archivdaten (Monats und Tagesdaten)

Cookies helfen bei der Bereitstellung von Inhalten. Durch die Nutzung dieser Seiten erklärst du dich damit einverstanden, dass Cookies auf deinem Rechner gespeichert werden. Weitere Information